sensor_id;sensor_type;location;lat;lon;timestamp;pressure;altitude;pressure_sealevel;temperature;humidity
21742;BME280;11033;47.490;11.116;2022-12-18T00:01:36;93950.72;;;-7.36;87.67
21742;BME280;11033;47.490;11.116;2022-12-18T00:04:04;93954.19;;;-7.37;87.62
21742;BME280;11033;47.490;11.116;2022-12-18T00:06:31;93956.88;;;-7.40;87.63
21742;BME280;11033;47.490;11.116;2022-12-18T00:08:58;93963.66;;;-7.39;87.80
21742;BME280;11033;47.490;11.116;2022-12-18T00:11:27;93968.75;;;-7.39;87.37
21742;BME280;11033;47.490;11.116;2022-12-18T00:13:54;93966.00;;;-7.35;87.31
21742;BME280;11033;47.490;11.116;2022-12-18T00:16:21;93975.28;;;-7.32;87.60
21742;BME280;11033;47.490;11.116;2022-12-18T00:18:52;93968.81;;;-7.20;87.38
21742;BME280;11033;47.490;11.116;2022-12-18T00:21:19;93966.59;;;-7.28;87.66
21742;BME280;11033;47.490;11.116;2022-12-18T00:23:45;93964.28;;;-7.34;87.99
21742;BME280;11033;47.490;11.116;2022-12-18T00:26:14;93971.25;;;-7.38;87.60
21742;BME280;11033;47.490;11.116;2022-12-18T00:28:43;93966.97;;;-7.37;87.99
21742;BME280;11033;47.490;11.116;2022-12-18T00:31:15;93972.91;;;-7.37;88.03
21742;BME280;11033;47.490;11.116;2022-12-18T00:33:41;93968.50;;;-7.33;87.25
21742;BME280;11033;47.490;11.116;2022-12-18T00:36:10;93963.78;;;-7.42;87.36
21742;BME280;11033;47.490;11.116;2022-12-18T00:38:36;93970.34;;;-7.37;87.26
21742;BME280;11033;47.490;11.116;2022-12-18T00:41:02;93974.00;;;-7.42;87.46
21742;BME280;11033;47.490;11.116;2022-12-18T00:43:28;93985.06;;;-7.42;87.53
21742;BME280;11033;47.490;11.116;2022-12-18T00:45:53;93989.22;;;-7.39;87.09
21742;BME280;11033;47.490;11.116;2022-12-18T00:48:19;93993.94;;;-7.50;87.85
21742;BME280;11033;47.490;11.116;2022-12-18T00:50:45;93991.00;;;-7.41;87.66
21742;BME280;11033;47.490;11.116;2022-12-18T00:53:11;93995.38;;;-7.43;87.37
21742;BME280;11033;47.490;11.116;2022-12-18T00:55:40;93997.16;;;-7.45;87.98
21742;BME280;11033;47.490;11.116;2022-12-18T00:58:07;94000.41;;;-7.42;88.16
21742;BME280;11033;47.490;11.116;2022-12-18T01:00:34;93996.25;;;-7.44;87.86
21742;BME280;11033;47.490;11.116;2022-12-18T01:03:00;94004.75;;;-7.44;87.39
21742;BME280;11033;47.490;11.116;2022-12-18T01:05:26;94005.72;;;-7.46;87.96
21742;BME280;11033;47.490;11.116;2022-12-18T01:07:51;94023.75;;;-7.49;88.92
21742;BME280;11033;47.490;11.116;2022-12-18T01:10:17;94023.50;;;-7.43;88.34
21742;BME280;11033;47.490;11.116;2022-12-18T01:12:42;94019.09;;;-7.40;88.48
21742;BME280;11033;47.490;11.116;2022-12-18T01:15:09;94025.03;;;-7.39;88.13
21742;BME280;11033;47.490;11.116;2022-12-18T01:17:36;94028.66;;;-7.45;88.19
21742;BME280;11033;47.490;11.116;2022-12-18T01:20:02;94036.41;;;-7.46;88.40
21742;BME280;11033;47.490;11.116;2022-12-18T01:22:27;94030.16;;;-7.39;88.65
21742;BME280;11033;47.490;11.116;2022-12-18T01:24:52;94043.97;;;-7.43;87.71
21742;BME280;11033;47.490;11.116;2022-12-18T01:27:18;94046.56;;;-7.45;88.22
21742;BME280;11033;47.490;11.116;2022-12-18T01:29:43;94043.97;;;-7.43;87.98
21742;BME280;11033;47.490;11.116;2022-12-18T01:32:08;94044.78;;;-7.43;87.84
21742;BME280;11033;47.490;11.116;2022-12-18T01:34:35;94045.75;;;-7.45;87.92
21742;BME280;11033;47.490;11.116;2022-12-18T01:37:05;94055.22;;;-7.47;88.20
21742;BME280;11033;47.490;11.116;2022-12-18T01:39:31;94051.50;;;-7.40;88.56
21742;BME280;11033;47.490;11.116;2022-12-18T01:42:01;94057.88;;;-7.50;87.98
21742;BME280;11033;47.490;11.116;2022-12-18T01:45:00;94049.19;;;-7.46;88.62
21742;BME280;11033;47.490;11.116;2022-12-18T01:50:20;94052.06;;;-7.54;88.18
21742;BME280;11033;47.490;11.116;2022-12-18T01:52:55;94057.25;;;-7.55;88.06
21742;BME280;11033;47.490;11.116;2022-12-18T01:55:23;94068.19;;;-7.52;88.17
21742;BME280;11033;47.490;11.116;2022-12-18T01:57:52;94058.00;;;-7.53;87.99
21742;BME280;11033;47.490;11.116;2022-12-18T02:00:21;94060.63;;;-7.55;87.81
21742;BME280;11033;47.490;11.116;2022-12-18T02:02:47;94058.97;;;-7.56;87.94
21742;BME280;11033;47.490;11.116;2022-12-18T02:05:16;94059.97;;;-7.60;88.23
21742;BME280;11033;47.490;11.116;2022-12-18T02:07:45;94054.03;;;-7.60;87.94
21742;BME280;11033;47.490;11.116;2022-12-18T02:18:40;94036.00;;;-7.57;87.95
21742;BME280;11033;47.490;11.116;2022-12-18T02:26:29;94035.84;;;-7.75;88.54
21742;BME280;11033;47.490;11.116;2022-12-18T02:28:57;94033.16;;;-7.72;87.53
21742;BME280;11033;47.490;11.116;2022-12-18T02:31:28;94035.91;;;-7.76;88.12
21742;BME280;11033;47.490;11.116;2022-12-18T02:33:58;94038.53;;;-7.78;87.81
21742;BME280;11033;47.490;11.116;2022-12-18T02:36:27;94051.38;;;-7.79;87.89
21742;BME280;11033;47.490;11.116;2022-12-18T02:38:53;94051.00;;;-7.70;88.16
21742;BME280;11033;47.490;11.116;2022-12-18T02:41:20;94039.19;;;-7.73;88.01
21742;BME280;11033;47.490;11.116;2022-12-18T02:43:55;94047.38;;;-7.64;88.20
21742;BME280;11033;47.490;11.116;2022-12-18T02:48:56;94047.91;;;-7.56;88.87
21742;BME280;11033;47.490;11.116;2022-12-18T02:51:35;94058.13;;;-7.56;88.34
21742;BME280;11033;47.490;11.116;2022-12-18T02:54:10;94063.72;;;-7.69;88.81
21742;BME280;11033;47.490;11.116;2022-12-18T02:56:46;94051.72;;;-7.67;88.67
21742;BME280;11033;47.490;11.116;2022-12-18T02:59:24;94056.94;;;-7.70;88.99
21742;BME280;11033;47.490;11.116;2022-12-18T03:02:07;94068.72;;;-7.65;88.82
21742;BME280;11033;47.490;11.116;2022-12-18T03:04:59;94068.78;;;-7.67;88.15
21742;BME280;11033;47.490;11.116;2022-12-18T03:07:34;94073.13;;;-7.69;88.85
21742;BME280;11033;47.490;11.116;2022-12-18T03:10:01;94077.41;;;-7.70;88.63
21742;BME280;11033;47.490;11.116;2022-12-18T03:12:33;94067.19;;;-7.70;88.81
21742;BME280;11033;47.490;11.116;2022-12-18T03:15:13;94060.41;;;-7.71;88.80
21742;BME280;11033;47.490;11.116;2022-12-18T03:17:41;94060.53;;;-7.74;88.86
21742;BME280;11033;47.490;11.116;2022-12-18T03:20:13;94058.56;;;-7.67;88.75
21742;BME280;11033;47.490;11.116;2022-12-18T03:22:42;94056.72;;;-7.63;88.52
21742;BME280;11033;47.490;11.116;2022-12-18T03:25:11;94060.28;;;-7.68;87.65
21742;BME280;11033;47.490;11.116;2022-12-18T03:27:42;94064.81;;;-7.74;87.78
21742;BME280;11033;47.490;11.116;2022-12-18T03:30:12;94066.22;;;-7.67;87.89
21742;BME280;11033;47.490;11.116;2022-12-18T03:32:58;94067.78;;;-7.63;87.62
21742;BME280;11033;47.490;11.116;2022-12-18T03:35:30;94055.69;;;-7.59;87.54
21742;BME280;11033;47.490;11.116;2022-12-18T03:37:57;94062.00;;;-7.68;87.92
21742;BME280;11033;47.490;11.116;2022-12-18T03:40:34;94058.75;;;-7.72;88.58
21742;BME280;11033;47.490;11.116;2022-12-18T03:43:31;94054.50;;;-7.73;88.51
21742;BME280;11033;47.490;11.116;2022-12-18T03:45:57;94052.78;;;-7.72;87.98
21742;BME280;11033;47.490;11.116;2022-12-18T03:48:31;94055.41;;;-7.74;88.05
21742;BME280;11033;47.490;11.116;2022-12-18T03:51:10;94051.31;;;-7.78;88.07
21742;BME280;11033;47.490;11.116;2022-12-18T03:53:51;94053.88;;;-7.78;87.95
21742;BME280;11033;47.490;11.116;2022-12-18T03:56:20;94055.53;;;-7.77;88.69
21742;BME280;11033;47.490;11.116;2022-12-18T03:58:47;94065.56;;;-7.72;88.05
21742;BME280;11033;47.490;11.116;2022-12-18T04:01:15;94057.31;;;-7.79;87.83
21742;BME280;11033;47.490;11.116;2022-12-18T04:03:43;94055.41;;;-7.74;88.32
21742;BME280;11033;47.490;11.116;2022-12-18T04:06:10;94064.97;;;-7.79;88.44
21742;BME280;11033;47.490;11.116;2022-12-18T04:08:36;94067.28;;;-7.73;88.01
21742;BME280;11033;47.490;11.116;2022-12-18T04:11:02;94065.50;;;-7.71;89.07
21742;BME280;11033;47.490;11.116;2022-12-18T04:13:29;94055.41;;;-7.74;88.24
21742;BME280;11033;47.490;11.116;2022-12-18T04:15:57;94063.84;;;-7.72;88.54
21742;BME280;11033;47.490;11.116;2022-12-18T04:18:22;94060.78;;;-7.81;88.54
21742;BME280;11033;47.490;11.116;2022-12-18T04:20:47;94060.00;;;-7.83;89.03
21742;BME280;11033;47.490;11.116;2022-12-18T04:23:13;94072.84;;;-7.85;88.29
21742;BME280;11033;47.490;11.116;2022-12-18T04:25:38;94068.44;;;-7.80;88.42
21742;BME280;11033;47.490;11.116;2022-12-18T04:28:04;94069.28;;;-7.81;88.42
21742;BME280;11033;47.490;11.116;2022-12-18T04:30:30;94079.25;;;-7.73;88.43
21742;BME280;11033;47.490;11.116;2022-12-18T04:32:55;94080.09;;;-7.73;88.94
21742;BME280;11033;47.490;11.116;2022-12-18T04:35:21;94077.41;;;-7.70;89.23
21742;BME280;11033;47.490;11.116;2022-12-18T04:37:46;94073.31;;;-7.74;88.52
21742;BME280;11033;47.490;11.116;2022-12-18T04:40:12;94068.47;;;-7.81;88.55
21742;BME280;11033;47.490;11.116;2022-12-18T04:42:39;94062.63;;;-7.85;88.56
21742;BME280;11033;47.490;11.116;2022-12-18T04:45:04;94057.63;;;-7.88;88.09
21742;BME280;11033;47.490;11.116;2022-12-18T04:47:30;94061.03;;;-7.87;88.96
21742;BME280;11033;47.490;11.116;2022-12-18T04:49:55;94066.19;;;-7.89;88.13
21742;BME280;11033;47.490;11.116;2022-12-18T04:52:21;94058.00;;;-7.97;88.48
21742;BME280;11033;47.490;11.116;2022-12-18T04:54:46;94068.31;;;-8.00;88.22
21742;BME280;11033;47.490;11.116;2022-12-18T04:57:11;94068.97;;;-7.95;88.04
21742;BME280;11033;47.490;11.116;2022-12-18T04:59:36;94068.09;;;-7.94;88.62
21742;BME280;11033;47.490;11.116;2022-12-18T05:02:02;94075.53;;;-7.88;88.00
21742;BME280;11033;47.490;11.116;2022-12-18T05:04:27;94074.63;;;-7.87;88.05
21742;BME280;11033;47.490;11.116;2022-12-18T05:06:52;94079.88;;;-7.90;87.49
21742;BME280;11033;47.490;11.116;2022-12-18T05:09:18;94080.94;;;-7.95;88.47
21742;BME280;11033;47.490;11.116;2022-12-18T05:11:43;94088.53;;;-7.94;88.82
21742;BME280;11033;47.490;11.116;2022-12-18T05:14:08;94084.19;;;-7.92;88.56
21742;BME280;11033;47.490;11.116;2022-12-18T05:16:33;94080.88;;;-7.94;89.08
21742;BME280;11033;47.490;11.116;2022-12-18T05:18:59;94092.00;;;-7.95;88.44
21742;BME280;11033;47.490;11.116;2022-12-18T05:21:24;94083.25;;;-7.89;88.40
21742;BME280;11033;47.490;11.116;2022-12-18T05:23:49;94088.53;;;-7.94;88.35
21742;BME280;11033;47.490;11.116;2022-12-18T05:26:19;94093.66;;;-7.94;88.50
21742;BME280;11033;47.490;11.116;2022-12-18T05:28:44;94094.00;;;-8.03;89.37
21742;BME280;11033;47.490;11.116;2022-12-18T05:31:11;94085.22;;;-7.96;88.58
21742;BME280;11033;47.490;11.116;2022-12-18T05:33:36;94101.09;;;-7.88;88.73
21742;BME280;11033;47.490;11.116;2022-12-18T05:36:04;94107.63;;;-7.81;88.64
21742;BME280;11033;47.490;11.116;2022-12-18T05:38:32;94111.88;;;-7.80;88.50
21742;BME280;11033;47.490;11.116;2022-12-18T05:40:57;94113.97;;;-7.91;88.93
21742;BME280;11033;47.490;11.116;2022-12-18T05:43:24;94112.19;;;-7.89;88.79
21742;BME280;11033;47.490;11.116;2022-12-18T05:45:50;94115.53;;;-7.87;88.80
21742;BME280;11033;47.490;11.116;2022-12-18T05:48:16;94123.97;;;-7.85;88.34
21742;BME280;11033;47.490;11.116;2022-12-18T05:50:44;94123.13;;;-7.85;88.78
21742;BME280;11033;47.490;11.116;2022-12-18T05:53:10;94122.41;;;-7.89;88.98
21742;BME280;11033;47.490;11.116;2022-12-18T05:55:37;94135.97;;;-7.87;88.15
21742;BME280;11033;47.490;11.116;2022-12-18T05:58:04;94139.53;;;-7.91;88.33
21742;BME280;11033;47.490;11.116;2022-12-18T06:00:31;94139.44;;;-7.88;88.86
21742;BME280;11033;47.490;11.116;2022-12-18T06:02:57;94140.97;;;-7.84;88.16
21742;BME280;11033;47.490;11.116;2022-12-18T06:05:23;94135.97;;;-7.87;87.90
21742;BME280;11033;47.490;11.116;2022-12-18T06:07:48;94135.75;;;-7.81;88.22
21742;BME280;11033;47.490;11.116;2022-12-18T06:10:13;94134.44;;;-7.91;88.79
21742;BME280;11033;47.490;11.116;2022-12-18T06:12:39;94139.53;;;-7.91;88.66
21742;BME280;11033;47.490;11.116;2022-12-18T06:15:04;94145.59;;;-7.93;88.92
21742;BME280;11033;47.490;11.116;2022-12-18T06:17:31;94144.66;;;-7.91;88.37
21742;BME280;11033;47.490;11.116;2022-12-18T06:19:56;94135.31;;;-7.92;89.20
21742;BME280;11033;47.490;11.116;2022-12-18T06:22:22;94135.88;;;-7.84;89.17
21742;BME280;11033;47.490;11.116;2022-12-18T06:24:47;94141.09;;;-7.87;89.28
21742;BME280;11033;47.490;11.116;2022-12-18T06:27:13;94140.97;;;-7.84;89.98
21742;BME280;11033;47.490;11.116;2022-12-18T06:29:38;94140.84;;;-7.81;89.01
21742;BME280;11033;47.490;11.116;2022-12-18T06:32:04;94151.00;;;-7.78;88.87
21742;BME280;11033;47.490;11.116;2022-12-18T06:34:29;94154.34;;;-7.76;88.86
21742;BME280;11033;47.490;11.116;2022-12-18T06:36:55;94141.72;;;-7.80;88.59
21742;BME280;11033;47.490;11.116;2022-12-18T06:39:21;94140.00;;;-7.80;88.69
21742;BME280;11033;47.490;11.116;2022-12-18T06:41:46;94136.56;;;-7.79;88.76
21742;BME280;11033;47.490;11.116;2022-12-18T06:44:11;94148.50;;;-7.79;89.75
21742;BME280;11033;47.490;11.116;2022-12-18T06:46:36;94127.22;;;-7.80;89.26
21742;BME280;11033;47.490;11.116;2022-12-18T06:49:03;94138.31;;;-7.81;89.22
21742;BME280;11033;47.490;11.116;2022-12-18T06:51:28;94141.94;;;-7.86;89.85
21742;BME280;11033;47.490;11.116;2022-12-18T06:53:53;94135.09;;;-7.86;89.87
21742;BME280;11033;47.490;11.116;2022-12-18T06:56:19;94137.34;;;-7.77;89.62
21742;BME280;11033;47.490;11.116;2022-12-18T06:58:44;94139.19;;;-7.82;90.00
21742;BME280;11033;47.490;11.116;2022-12-18T07:01:10;94141.38;;;-7.71;89.47
21742;BME280;11033;47.490;11.116;2022-12-18T07:03:37;94146.38;;;-7.68;89.89
21742;BME280;11033;47.490;11.116;2022-12-18T07:06:02;94149.72;;;-7.66;89.62
21742;BME280;11033;47.490;11.116;2022-12-18T07:08:29;94156.44;;;-7.63;89.62
21742;BME280;11033;47.490;11.116;2022-12-18T07:10:55;94165.34;;;-7.52;89.65
21742;BME280;11033;47.490;11.116;2022-12-18T07:13:20;94156.03;;;-7.53;89.16
21742;BME280;11033;47.490;11.116;2022-12-18T07:15:45;94162.09;;;-7.55;89.49
21742;BME280;11033;47.490;11.116;2022-12-18T07:18:11;94166.19;;;-7.51;90.23
21742;BME280;11033;47.490;11.116;2022-12-18T07:20:36;94168.88;;;-7.54;89.99
21742;BME280;11033;47.490;11.116;2022-12-18T07:23:05;94168.88;;;-7.54;90.27
21742;BME280;11033;47.490;11.116;2022-12-18T07:25:36;94165.28;;;-7.50;89.74
21742;BME280;11033;47.490;11.116;2022-12-18T07:28:02;94173.88;;;-7.51;89.71
21742;BME280;11033;47.490;11.116;2022-12-18T07:30:28;94178.97;;;-7.51;90.34
21742;BME280;11033;47.490;11.116;2022-12-18T07:32:53;94181.47;;;-7.50;90.31
21742;BME280;11033;47.490;11.116;2022-12-18T07:35:18;94184.56;;;-7.42;89.59
21742;BME280;11033;47.490;11.116;2022-12-18T07:37:44;94181.19;;;-7.42;89.61
21742;BME280;11033;47.490;11.116;2022-12-18T07:40:10;94178.38;;;-7.36;89.69
21742;BME280;11033;47.490;11.116;2022-12-18T07:42:35;94182.84;;;-7.41;90.10
21742;BME280;11033;47.490;11.116;2022-12-18T07:45:02;94187.06;;;-7.40;89.27
21742;BME280;11033;47.490;11.116;2022-12-18T07:47:28;94185.28;;;-7.38;89.74
21742;BME280;11033;47.490;11.116;2022-12-18T07:49:58;94195.53;;;-7.38;89.20
21742;BME280;11033;47.490;11.116;2022-12-18T07:52:23;94191.84;;;-7.31;89.17
21742;BME280;11033;47.490;11.116;2022-12-18T07:54:49;94203.69;;;-7.28;89.87
21742;BME280;11033;47.490;11.116;2022-12-18T07:57:15;94194.81;;;-7.20;89.42
21742;BME280;11033;47.490;11.116;2022-12-18T07:59:41;94193.97;;;-7.20;88.73
21742;BME280;11033;47.490;11.116;2022-12-18T08:02:06;94199.72;;;-7.14;88.64
21742;BME280;11033;47.490;11.116;2022-12-18T08:04:34;94192.94;;;-7.15;89.05
21742;BME280;11033;47.490;11.116;2022-12-18T08:07:00;94189.44;;;-7.12;88.89
21742;BME280;11033;47.490;11.116;2022-12-18T08:09:25;94187.56;;;-7.09;88.98
21742;BME280;11033;47.490;11.116;2022-12-18T08:11:50;94197.69;;;-7.06;88.51
21742;BME280;11033;47.490;11.116;2022-12-18T08:14:16;94197.69;;;-7.06;89.27
21742;BME280;11033;47.490;11.116;2022-12-18T08:16:41;94198.94;;;-6.94;88.69
21742;BME280;11033;47.490;11.116;2022-12-18T08:19:06;94201.44;;;-6.92;89.26
21742;BME280;11033;47.490;11.116;2022-12-18T08:21:32;94205.53;;;-6.88;88.77
21742;BME280;11033;47.490;11.116;2022-12-18T08:23:59;94198.50;;;-6.83;89.25
21742;BME280;11033;47.490;11.116;2022-12-18T08:26:26;94200.69;;;-6.74;88.81
21742;BME280;11033;47.490;11.116;2022-12-18T08:28:54;94199.53;;;-6.45;88.88
21742;BME280;11033;47.490;11.116;2022-12-18T08:31:19;94198.56;;;-6.22;88.16
21742;BME280;11033;47.490;11.116;2022-12-18T08:33:45;94203.81;;;-6.05;87.98
21742;BME280;11033;47.490;11.116;2022-12-18T08:36:12;94201.44;;;-5.70;87.94
21742;BME280;11033;47.490;11.116;2022-12-18T08:38:38;94200.38;;;-4.91;86.56
21742;BME280;11033;47.490;11.116;2022-12-18T08:41:05;94193.44;;;-4.72;85.26
21742;BME280;11033;47.490;11.116;2022-12-18T08:43:31;94191.16;;;-4.78;85.06
21742;BME280;11033;47.490;11.116;2022-12-18T08:46:16;94194.56;;;-4.41;85.00
21742;BME280;11033;47.490;11.116;2022-12-18T08:48:41;94198.09;;;-3.59;83.50
21742;BME280;11033;47.490;11.116;2022-12-18T08:51:06;94188.09;;;-2.85;81.90
21742;BME280;11033;47.490;11.116;2022-12-18T08:53:32;94182.84;;;-2.08;79.42
21742;BME280;11033;47.490;11.116;2022-12-18T08:55:57;94173.63;;;-2.12;78.44
21742;BME280;11033;47.490;11.116;2022-12-18T08:58:23;94177.56;;;-1.90;78.97
21742;BME280;11033;47.490;11.116;2022-12-18T09:00:48;94173.34;;;-1.49;77.66
21742;BME280;11033;47.490;11.116;2022-12-18T09:03:14;94174.81;;;-1.45;77.15
21742;BME280;11033;47.490;11.116;2022-12-18T09:05:40;94169.66;;;-0.89;75.65
21742;BME280;11033;47.490;11.116;2022-12-18T09:08:06;94162.91;;;-0.51;73.85
21742;BME280;11033;47.490;11.116;2022-12-18T09:10:31;94173.56;;;-0.16;74.68
21742;BME280;11033;47.490;11.116;2022-12-18T09:12:57;94159.72;;;0.74;72.38
21742;BME280;11033;47.490;11.116;2022-12-18T09:15:22;94161.38;;;1.72;70.90
21742;BME280;11033;47.490;11.116;2022-12-18T09:17:48;94166.38;;;1.86;69.39
21742;BME280;11033;47.490;11.116;2022-12-18T09:20:15;94159.03;;;2.62;69.70
21742;BME280;11033;47.490;11.116;2022-12-18T09:22:40;94154.28;;;3.11;69.16
21742;BME280;11033;47.490;11.116;2022-12-18T09:25:06;94165.63;;;3.33;67.60
21742;BME280;11033;47.490;11.116;2022-12-18T09:27:33;94151.69;;;3.11;66.56
21742;BME280;11033;47.490;11.116;2022-12-18T09:29:58;94156.41;;;2.50;71.17
21742;BME280;11033;47.490;11.116;2022-12-18T09:32:24;94157.75;;;2.10;69.11
21742;BME280;11033;47.490;11.116;2022-12-18T09:34:49;94151.41;;;1.90;69.92
21742;BME280;11033;47.490;11.116;2022-12-18T09:37:14;94157.97;;;2.07;70.82
21742;BME280;11033;47.490;11.116;2022-12-18T09:39:39;94149.31;;;2.52;69.76
21742;BME280;11033;47.490;11.116;2022-12-18T09:42:05;94138.91;;;2.52;68.63
21742;BME280;11033;47.490;11.116;2022-12-18T09:44:43;94137.34;;;2.28;69.19
21742;BME280;11033;47.490;11.116;2022-12-18T09:47:27;94147.38;;;2.21;68.98
21742;BME280;11033;47.490;11.116;2022-12-18T09:50:01;94140.03;;;3.49;66.73
21742;BME280;11033;47.490;11.116;2022-12-18T09:52:32;94145.38;;;4.84;64.76
21742;BME280;11033;47.490;11.116;2022-12-18T09:57:55;94130.78;;;5.81;60.59
21742;BME280;11033;47.490;11.116;2022-12-18T10:00:23;94122.25;;;5.69;58.08
21742;BME280;11033;47.490;11.116;2022-12-18T10:02:59;94126.47;;;6.76;58.71
21742;BME280;11033;47.490;11.116;2022-12-18T10:05:51;94112.66;;;7.66;56.80
21742;BME280;11033;47.490;11.116;2022-12-18T10:08:23;94120.78;;;8.44;57.24
21742;BME280;11033;47.490;11.116;2022-12-18T10:10:53;94122.38;;;8.37;52.52
21742;BME280;11033;47.490;11.116;2022-12-18T10:13:23;94128.63;;;9.47;55.88
21742;BME280;11033;47.490;11.116;2022-12-18T10:16:16;94113.91;;;10.62;52.87
21742;BME280;11033;47.490;11.116;2022-12-18T10:27:06;94106.47;;;11.84;47.52
21742;BME280;11033;47.490;11.116;2022-12-18T10:29:34;94107.91;;;13.89;49.63
21742;BME280;11033;47.490;11.116;2022-12-18T10:32:00;94112.06;;;13.18;45.90
21742;BME280;11033;47.490;11.116;2022-12-18T10:34:25;94108.31;;;13.72;45.89
21742;BME280;11033;47.490;11.116;2022-12-18T10:36:50;94100.38;;;14.93;46.40
21742;BME280;11033;47.490;11.116;2022-12-18T10:39:22;94099.66;;;14.78;43.10
21742;BME280;11033;47.490;11.116;2022-12-18T10:41:48;94088.97;;;15.96;44.42
21742;BME280;11033;47.490;11.116;2022-12-18T10:44:17;94079.53;;;15.11;39.56
21742;BME280;11033;47.490;11.116;2022-12-18T10:46:45;94077.78;;;16.14;43.20
21742;BME280;11033;47.490;11.116;2022-12-18T10:49:37;94090.19;;;16.68;39.89
21742;BME280;11033;47.490;11.116;2022-12-18T10:52:14;94093.72;;;15.32;37.39
21742;BME280;11033;47.490;11.116;2022-12-18T10:54:47;94088.34;;;15.88;38.79
21742;BME280;11033;47.490;11.116;2022-12-18T10:57:36;94091.16;;;16.47;39.00
21742;BME280;11033;47.490;11.116;2022-12-18T11:00:24;94090.16;;;15.80;38.13
21742;BME280;11033;47.490;11.116;2022-12-18T11:02:50;94086.28;;;17.30;40.39
21742;BME280;11033;47.490;11.116;2022-12-18T11:05:30;94088.72;;;18.22;37.01
21742;BME280;11033;47.490;11.116;2022-12-18T11:07:57;94090.78;;;17.36;35.65
21742;BME280;11033;47.490;11.116;2022-12-18T11:10:46;94085.56;;;19.88;35.59
21742;BME280;11033;47.490;11.116;2022-12-18T11:13:22;94080.22;;;19.45;32.49
21742;BME280;11033;47.490;11.116;2022-12-18T11:15:49;94081.22;;;18.44;35.84
21742;BME280;11033;47.490;11.116;2022-12-18T11:18:34;94076.84;;;18.50;33.40
21742;BME280;11033;47.490;11.116;2022-12-18T11:21:11;94075.34;;;18.67;36.45
21742;BME280;11033;47.490;11.116;2022-12-18T11:23:53;94073.44;;;20.04;34.78
21742;BME280;11033;47.490;11.116;2022-12-18T11:26:19;94069.91;;;19.48;30.58
21742;BME280;11033;47.490;11.116;2022-12-18T11:28:52;94082.56;;;16.32;35.42
21742;BME280;11033;47.490;11.116;2022-12-18T11:31:32;94078.13;;;20.26;34.65
21742;BME280;11033;47.490;11.116;2022-12-18T11:36:29;94070.25;;;19.95;31.96
21742;BME280;11033;47.490;11.116;2022-12-18T11:38:59;94070.72;;;19.92;32.80
21742;BME280;11033;47.490;11.116;2022-12-18T11:44:18;94062.31;;;22.99;32.66
21742;BME280;11033;47.490;11.116;2022-12-18T11:46:50;94056.94;;;22.70;31.57
21742;BME280;11033;47.490;11.116;2022-12-18T11:49:24;94047.69;;;23.79;29.85
21742;BME280;11033;47.490;11.116;2022-12-18T11:51:56;94055.47;;;21.36;29.18
21742;BME280;11033;47.490;11.116;2022-12-18T11:54:25;94059.38;;;20.86;30.88
21742;BME280;11033;47.490;11.116;2022-12-18T11:56:55;94047.00;;;22.99;31.17
21742;BME280;11033;47.490;11.116;2022-12-18T12:00:11;94060.47;;;21.09;28.70
21742;BME280;11033;47.490;11.116;2022-12-18T12:08:33;94059.03;;;20.95;26.11
21742;BME280;11033;47.490;11.116;2022-12-18T12:14:01;94045.81;;;21.58;30.58
21742;BME280;11033;47.490;11.116;2022-12-18T12:16:37;94039.47;;;24.07;28.87
21742;BME280;11033;47.490;11.116;2022-12-18T12:22:30;94046.94;;;22.37;30.46
21742;BME280;11033;47.490;11.116;2022-12-18T12:25:30;94044.06;;;21.40;29.84
21742;BME280;11033;47.490;11.116;2022-12-18T12:33:54;94019.09;;;21.75;29.26
21742;BME280;11033;47.490;11.116;2022-12-18T12:36:33;94018.28;;;21.63;30.60
21742;BME280;11033;47.490;11.116;2022-12-18T12:39:07;94015.13;;;23.58;29.28
21742;BME280;11033;47.490;11.116;2022-12-18T12:41:35;94016.41;;;22.27;29.72
21742;BME280;11033;47.490;11.116;2022-12-18T12:44:25;94011.66;;;22.91;29.31
21742;BME280;11033;47.490;11.116;2022-12-18T12:46:52;94007.59;;;21.28;30.62
21742;BME280;11033;47.490;11.116;2022-12-18T12:49:22;94011.41;;;23.09;28.41
21742;BME280;11033;47.490;11.116;2022-12-18T12:52:29;94011.75;;;22.22;28.36
21742;BME280;11033;47.490;11.116;2022-12-18T12:54:47;94005.53;;;22.95;29.45
21742;BME280;11033;47.490;11.116;2022-12-18T12:57:21;94003.56;;;24.01;27.61
21742;BME280;11033;47.490;11.116;2022-12-18T12:59:55;94007.63;;;20.33;29.41
21742;BME280;11033;47.490;11.116;2022-12-18T13:02:37;93999.59;;;20.33;30.52
21742;BME280;11033;47.490;11.116;2022-12-18T13:07:59;94006.53;;;20.52;31.35
21742;BME280;11033;47.490;11.116;2022-12-18T13:10:36;94009.47;;;21.50;30.57
21742;BME280;11033;47.490;11.116;2022-12-18T13:13:08;93998.88;;;23.53;28.36
21742;BME280;11033;47.490;11.116;2022-12-18T13:15:43;93995.34;;;21.95;28.54
21742;BME280;11033;47.490;11.116;2022-12-18T13:20:40;93992.78;;;21.25;30.17
21742;BME280;11033;47.490;11.116;2022-12-18T13:33:42;94010.56;;;18.22;33.70
21742;BME280;11033;47.490;11.116;2022-12-18T13:36:32;94013.78;;;16.09;35.53
21742;BME280;11033;47.490;11.116;2022-12-18T13:41:50;94011.75;;;15.15;37.78
21742;BME280;11033;47.490;11.116;2022-12-18T13:46:55;94019.63;;;13.82;41.71
21742;BME280;11033;47.490;11.116;2022-12-18T13:49:32;94032.94;;;13.09;42.77
21742;BME280;11033;47.490;11.116;2022-12-18T13:52:02;94034.78;;;12.41;43.62
21742;BME280;11033;47.490;11.116;2022-12-18T13:54:35;94042.78;;;11.17;44.62
21742;BME280;11033;47.490;11.116;2022-12-18T13:57:02;94036.38;;;10.24;46.07
21742;BME280;11033;47.490;11.116;2022-12-18T13:59:36;94037.63;;;10.76;45.50
21742;BME280;11033;47.490;11.116;2022-12-18T14:02:18;94032.56;;;9.94;46.78
21742;BME280;11033;47.490;11.116;2022-12-18T14:04:46;94034.69;;;10.06;47.55
21742;BME280;11033;47.490;11.116;2022-12-18T14:07:38;94045.09;;;8.57;50.26
21742;BME280;11033;47.490;11.116;2022-12-18T14:10:12;94045.63;;;7.63;49.67
21742;BME280;11033;47.490;11.116;2022-12-18T14:12:39;94057.56;;;7.93;49.87
21742;BME280;11033;47.490;11.116;2022-12-18T14:18:25;94071.88;;;7.09;49.31
21742;BME280;11033;47.490;11.116;2022-12-18T14:20:55;94084.63;;;5.91;51.31